createdAt,value
2023-03-26T00:01:23.944Z,3.45
2023-03-26T00:03:53.946Z,3.50
2023-03-26T00:06:25.771Z,3.05
2023-03-26T00:08:53.424Z,3.72
2023-03-26T00:11:22.201Z,3.28
2023-03-26T00:13:49.296Z,3.10
2023-03-26T00:16:18.265Z,2.60
2023-03-26T00:18:47.348Z,3.20
2023-03-26T00:21:17.119Z,3.63
2023-03-26T00:23:44.387Z,2.85
2023-03-26T00:26:11.382Z,2.83
2023-03-26T00:28:40.630Z,3.13
2023-03-26T00:31:11.288Z,3.05
2023-03-26T00:33:40.669Z,2.90
2023-03-26T00:36:10.821Z,3.00
2023-03-26T00:38:39.174Z,3.05
2023-03-26T00:41:25.707Z,3.00
2023-03-26T00:43:56.437Z,3.15
2023-03-26T00:46:24.873Z,3.80
2023-03-26T00:48:51.607Z,3.13
2023-03-26T00:51:20.666Z,2.67
2023-03-26T00:53:49.278Z,3.35
2023-03-26T00:56:16.594Z,3.15
2023-03-26T00:58:43.475Z,3.05
2023-03-26T01:01:14.063Z,2.92
2023-03-26T01:03:50.184Z,2.67
2023-03-26T01:06:32.943Z,3.45
2023-03-26T01:09:05.628Z,3.05
2023-03-26T01:11:34.845Z,3.20
2023-03-26T01:14:14.766Z,4.32
2023-03-26T01:16:45.158Z,3.50
2023-03-26T01:19:47.824Z,3.03
2023-03-26T01:22:20.965Z,3.08
2023-03-26T01:24:53.281Z,3.33
2023-03-26T01:27:24.552Z,3.60
2023-03-26T01:30:12.932Z,2.90
2023-03-26T01:32:59.155Z,3.63
2023-03-26T01:35:51.265Z,3.78
2023-03-26T01:38:29.590Z,3.63
2023-03-26T01:41:04.735Z,3.30
2023-03-26T01:43:54.418Z,3.08
2023-03-26T01:46:23.934Z,3.78
2023-03-26T01:48:51.409Z,3.95
2023-03-26T01:51:33.868Z,3.13
2023-03-26T01:54:04.012Z,3.50
2023-03-26T01:56:42.870Z,3.35
2023-03-26T01:59:24.284Z,3.22
2023-03-26T02:01:54.939Z,3.70
2023-03-26T02:04:39.832Z,3.35
2023-03-26T02:07:14.860Z,3.47
2023-03-26T02:09:49.979Z,3.78
2023-03-26T02:12:18.488Z,3.97
2023-03-26T02:14:46.008Z,6.85
2023-03-26T02:17:12.695Z,4.32
2023-03-26T02:19:42.271Z,3.50
2023-03-26T02:22:15.775Z,3.08
2023-03-26T02:24:43.691Z,3.17
2023-03-26T02:27:12.349Z,3.20
2023-03-26T02:29:39.999Z,3.00
2023-03-26T02:32:08.211Z,2.97
2023-03-26T02:34:34.808Z,3.25
2023-03-26T02:37:01.373Z,3.35
2023-03-26T02:39:27.974Z,3.13
2023-03-26T02:41:54.588Z,2.90
2023-03-26T02:44:21.272Z,3.05
2023-03-26T02:46:47.810Z,3.47
2023-03-26T02:49:14.575Z,2.70
2023-03-26T02:51:41.100Z,3.70
2023-03-26T02:54:07.690Z,3.50
2023-03-26T02:56:34.277Z,2.78
2023-03-26T02:59:01.036Z,3.33
2023-03-26T03:01:31.037Z,2.97
2023-03-26T03:03:57.756Z,3.40
2023-03-26T03:06:26.506Z,3.72
2023-03-26T03:08:54.158Z,4.15
2023-03-26T03:11:26.566Z,3.22
2023-03-26T03:13:53.280Z,5.50
2023-03-26T03:16:20.723Z,3.35
2023-03-26T03:18:54.355Z,3.08
2023-03-26T03:21:22.341Z,3.10
2023-03-26T03:23:49.044Z,3.85
2023-03-26T03:26:21.675Z,3.75
2023-03-26T03:28:49.773Z,3.83
2023-03-26T03:31:17.795Z,4.65
2023-03-26T03:33:46.341Z,5.10
2023-03-26T03:36:19.894Z,5.63
2023-03-26T03:38:49.357Z,4.80
2023-03-26T03:41:18.464Z,5.35
2023-03-26T03:43:45.698Z,5.78
2023-03-26T03:46:12.277Z,5.07
2023-03-26T03:48:39.242Z,4.57
2023-03-26T03:51:06.366Z,5.20
2023-03-26T03:53:37.155Z,4.82
2023-03-26T03:56:04.804Z,5.47
2023-03-26T03:58:31.401Z,5.13
2023-03-26T04:01:01.033Z,4.85
2023-03-26T04:03:34.166Z,4.70
2023-03-26T04:06:01.599Z,4.35
2023-03-26T04:08:28.255Z,4.75
2023-03-26T04:10:54.873Z,4.32
2023-03-26T04:13:21.610Z,4.80
2023-03-26T04:15:48.396Z,3.83
2023-03-26T04:18:15.359Z,4.18
2023-03-26T04:20:47.382Z,3.75
2023-03-26T04:25:53.621Z,3.47
2023-03-26T04:28:36.423Z,3.50
2023-03-26T04:31:06.513Z,2.88
2023-03-26T04:33:34.799Z,2.15
2023-03-26T04:36:03.077Z,2.33
2023-03-26T04:38:33.595Z,2.33
2023-03-26T04:41:03.295Z,2.60
2023-03-26T04:43:31.330Z,2.92
2023-03-26T04:45:58.075Z,2.55
2023-03-26T04:48:24.735Z,2.75
2023-03-26T04:50:51.529Z,3.22
2023-03-26T04:53:21.326Z,2.42
2023-03-26T04:56:01.455Z,3.00
2023-03-26T04:58:30.164Z,3.25
2023-03-26T05:00:57.375Z,2.38
2023-03-26T05:03:24.088Z,2.63
2023-03-26T05:05:51.492Z,2.35
2023-03-26T05:08:18.016Z,2.03
2023-03-26T05:10:44.604Z,2.00
2023-03-26T05:13:11.412Z,2.00
2023-03-26T05:15:37.962Z,1.90
2023-03-26T05:18:04.632Z,1.85
2023-03-26T05:20:31.532Z,1.85
2023-03-26T05:22:58.247Z,2.10
2023-03-26T05:25:24.885Z,1.63
2023-03-26T05:27:51.378Z,1.75
2023-03-26T05:30:20.789Z,2.30
2023-03-26T05:32:49.245Z,1.98
2023-03-26T05:35:19.481Z,2.28
2023-03-26T05:37:47.413Z,2.33
2023-03-26T05:40:17.078Z,2.50
2023-03-26T05:42:45.533Z,1.98
2023-03-26T05:45:14.349Z,2.78
2023-03-26T05:47:41.303Z,2.10
2023-03-26T05:50:09.435Z,2.50
2023-03-26T05:52:36.148Z,2.47
2023-03-26T05:55:03.455Z,2.67
2023-03-26T05:57:31.192Z,2.33
2023-03-26T05:59:57.853Z,2.70
2023-03-26T06:02:24.483Z,2.88
2023-03-26T06:04:51.238Z,2.83
2023-03-26T06:07:19.882Z,2.80
2023-03-26T06:09:46.722Z,2.67
2023-03-26T06:12:13.423Z,3.00
2023-03-26T06:14:42.767Z,2.95
2023-03-26T06:17:10.327Z,3.13
2023-03-26T06:19:37.586Z,2.88
2023-03-26T06:22:04.980Z,2.67
2023-03-26T06:24:32.382Z,2.40
2023-03-26T06:26:58.899Z,2.28
2023-03-26T06:29:25.715Z,2.17
2023-03-26T06:31:52.411Z,2.33
2023-03-26T06:34:19.092Z,2.05
2023-03-26T06:36:45.699Z,2.10
2023-03-26T06:39:12.295Z,2.20
2023-03-26T06:41:38.840Z,2.85
2023-03-26T06:44:05.340Z,2.22
2023-03-26T06:46:32.282Z,2.40
2023-03-26T06:48:59.653Z,1.80
2023-03-26T06:51:26.327Z,2.15
2023-03-26T06:53:52.972Z,1.85
2023-03-26T06:56:19.541Z,2.00
2023-03-26T06:58:46.098Z,1.50
2023-03-26T07:01:12.721Z,2.00
2023-03-26T07:03:39.380Z,1.80
2023-03-26T07:06:06.182Z,1.70
2023-03-26T07:08:32.709Z,1.85
2023-03-26T07:10:59.431Z,1.83
2023-03-26T07:13:26.158Z,2.22
2023-03-26T07:15:52.695Z,2.83
2023-03-26T07:18:19.244Z,5.70
2023-03-26T07:20:46.514Z,1.98
2023-03-26T07:23:15.613Z,1.88
2023-03-26T07:25:42.386Z,1.20
2023-03-26T07:28:27.274Z,1.60
2023-03-26T07:31:21.493Z,2.35
2023-03-26T07:34:08.430Z,1.98
2023-03-26T07:36:50.407Z,2.00
2023-03-26T07:39:44.910Z,2.15
2023-03-26T07:42:46.443Z,1.92
2023-03-26T07:45:26.854Z,1.85
2023-03-26T07:47:53.873Z,1.92
2023-03-26T07:50:22.861Z,1.77
2023-03-26T07:52:50.983Z,1.33
2023-03-26T07:55:18.398Z,1.55
2023-03-26T07:58:11.708Z,1.38
2023-03-26T08:01:02.819Z,1.50
2023-03-26T08:03:50.944Z,1.92
2023-03-26T08:06:28.157Z,1.55
2023-03-26T08:09:08.327Z,1.63
2023-03-26T08:11:46.119Z,1.00
2023-03-26T08:14:30.277Z,1.30
2023-03-26T08:16:59.989Z,1.63
2023-03-26T08:19:42.030Z,1.35
2023-03-26T08:22:12.055Z,1.20
2023-03-26T08:24:57.301Z,1.40
2023-03-26T08:27:43.775Z,1.15
2023-03-26T08:30:19.376Z,1.27
2023-03-26T08:32:57.636Z,1.05
2023-03-26T08:35:25.647Z,1.30
2023-03-26T08:37:52.434Z,1.48
2023-03-26T08:40:46.800Z,1.15
2023-03-26T08:44:05.136Z,1.20
2023-03-26T08:46:37.419Z,1.10
2023-03-26T08:49:03.961Z,1.00
2023-03-26T08:51:50.987Z,1.20
2023-03-26T08:54:23.166Z,1.52
2023-03-26T08:57:42.552Z,1.25
2023-03-26T09:00:35.676Z,1.55
2023-03-26T09:03:27.910Z,1.35
2023-03-26T09:06:35.827Z,1.40
2023-03-26T09:09:31.482Z,1.60
2023-03-26T09:11:57.946Z,1.20
2023-03-26T09:14:46.129Z,1.50
2023-03-26T09:17:48.987Z,1.55
2023-03-26T09:20:27.699Z,1.42
2023-03-26T09:23:45.284Z,2.13
2023-03-26T09:26:11.816Z,1.52
2023-03-26T09:29:17.074Z,1.50
2023-03-26T09:32:17.201Z,1.88
2023-03-26T09:35:13.607Z,1.55
2023-03-26T09:37:56.819Z,1.77
2023-03-26T09:40:42.478Z,1.35
2023-03-26T09:43:09.008Z,1.65
2023-03-26T09:45:52.595Z,1.45
2023-03-26T09:48:48.443Z,1.65
2023-03-26T09:51:39.439Z,1.55
2023-03-26T09:54:30.576Z,1.98
2023-03-26T09:56:59.857Z,1.65
2023-03-26T09:59:55.703Z,1.83
2023-03-26T10:02:47.568Z,1.80
2023-03-26T10:05:39.069Z,1.45
2023-03-26T10:08:08.878Z,2.35
2023-03-26T10:10:56.479Z,2.25
2023-03-26T10:13:49.489Z,1.80
2023-03-26T10:16:22.251Z,1.38
2023-03-26T10:19:31.259Z,1.45
2023-03-26T10:22:20.439Z,1.90
2023-03-26T10:24:59.161Z,1.90
2023-03-26T10:27:25.775Z,2.40
2023-03-26T10:30:10.770Z,1.60
2023-03-26T10:33:05.069Z,1.38
2023-03-26T10:35:38.898Z,2.00
2023-03-26T10:38:48.695Z,1.73
2023-03-26T10:41:52.470Z,1.98
2023-03-26T10:44:37.150Z,2.13
2023-03-26T10:47:37.444Z,2.03
2023-03-26T10:50:23.928Z,1.88
2023-03-26T10:53:15.844Z,2.13
2023-03-26T10:55:46.740Z,2.10
2023-03-26T10:58:13.213Z,2.38
2023-03-26T11:00:48.377Z,2.15
2023-03-26T11:03:44.016Z,1.63
2023-03-26T11:06:16.396Z,2.00
2023-03-26T11:09:04.297Z,1.67
2023-03-26T11:11:41.652Z,1.52
2023-03-26T11:14:27.913Z,2.20
2023-03-26T11:17:40.900Z,1.67
2023-03-26T11:20:16.002Z,1.50
2023-03-26T11:23:01.302Z,1.88
2023-03-26T11:25:52.777Z,1.73
2023-03-26T11:28:29.569Z,2.40
2023-03-26T11:30:59.448Z,2.10
2023-03-26T11:33:37.967Z,1.83
2023-03-26T11:36:18.700Z,2.00
2023-03-26T11:38:49.227Z,2.00
2023-03-26T11:41:22.737Z,1.90
2023-03-26T11:43:55.840Z,1.70
2023-03-26T11:46:25.354Z,1.45
2023-03-26T11:49:07.692Z,2.03
2023-03-26T11:51:38.863Z,2.53
2023-03-26T11:54:08.059Z,1.97
2023-03-26T11:57:04.438Z,2.22
2023-03-26T11:59:55.888Z,1.75
2023-03-26T12:02:34.160Z,2.08
2023-03-26T12:05:26.611Z,2.00
2023-03-26T12:11:01.280Z,2.45
2023-03-26T12:13:36.212Z,2.50
2023-03-26T12:16:18.379Z,1.55
2023-03-26T12:21:18.184Z,2.72
2023-03-26T12:23:51.212Z,2.00
2023-03-26T12:26:36.200Z,2.15
2023-03-26T12:29:14.960Z,2.60
2023-03-26T12:31:56.473Z,2.83
2023-03-26T12:34:43.313Z,2.47
2023-03-26T12:37:37.045Z,1.67
2023-03-26T12:40:25.924Z,1.70
2023-03-26T12:44:53.052Z,1.30
2023-03-26T12:45:43.354Z,1.10
2023-03-26T12:48:13.098Z,0.90
2023-03-26T12:51:17.027Z,1.10
2023-03-26T12:53:43.519Z,0.70
2023-03-26T12:56:38.586Z,1.13
2023-03-26T12:59:34.348Z,1.13
2023-03-26T13:02:21.746Z,1.20
2023-03-26T13:05:04.972Z,1.38
2023-03-26T13:07:52.018Z,0.93
2023-03-26T13:10:24.843Z,1.30
2023-03-26T13:12:57.978Z,1.35
2023-03-26T13:15:49.373Z,1.58
2023-03-26T13:18:33.680Z,1.88
2023-03-26T13:21:21.967Z,1.42
2023-03-26T13:23:48.509Z,1.48
2023-03-26T13:26:42.908Z,1.50
2023-03-26T13:29:25.063Z,1.38
2023-03-26T13:34:33.972Z,1.60
2023-03-26T13:37:18.653Z,1.55
2023-03-26T13:40:05.009Z,1.65
2023-03-26T13:43:13.016Z,1.77
2023-03-26T13:45:42.429Z,1.58
2023-03-26T13:48:16.398Z,1.35
2023-03-26T13:50:49.823Z,1.52
2023-03-26T13:53:24.866Z,1.48
2023-03-26T13:55:58.514Z,1.45
2023-03-26T13:58:34.349Z,1.77
2023-03-26T14:01:09.565Z,1.83
2023-03-26T14:04:00.451Z,1.42
2023-03-26T14:06:29.865Z,0.65
2023-03-26T14:09:04.829Z,0.80
2023-03-26T14:11:56.751Z,0.80
2023-03-26T14:14:29.437Z,0.70
2023-03-26T14:17:28.592Z,0.88
2023-03-26T14:20:24.136Z,0.68
2023-03-26T14:23:32.625Z,0.65
2023-03-26T14:26:20.991Z,0.90
2023-03-26T14:29:21.870Z,0.98
2023-03-26T14:32:00.494Z,1.00
2023-03-26T14:34:49.781Z,0.82
2023-03-26T14:37:28.221Z,1.05
2023-03-26T14:40:14.710Z,0.93
2023-03-26T14:42:46.056Z,0.90
2023-03-26T14:45:41.918Z,1.00
2023-03-26T14:48:26.866Z,0.90
2023-03-26T14:51:18.438Z,1.10
2023-03-26T14:53:50.446Z,1.10
2023-03-26T14:59:33.116Z,0.60
2023-03-26T15:02:18.452Z,0.82
2023-03-26T15:04:53.983Z,0.80
2023-03-26T15:07:48.264Z,1.15
2023-03-26T15:10:59.617Z,0.77
2023-03-26T15:14:05.332Z,0.68
2023-03-26T15:16:59.335Z,1.20
2023-03-26T15:19:44.221Z,0.75
2023-03-26T15:22:56.140Z,0.52
2023-03-26T15:25:44.440Z,0.65
2023-03-26T15:28:48.754Z,0.80
2023-03-26T15:31:42.665Z,1.10
2023-03-26T15:34:34.222Z,1.05
2023-03-26T15:37:17.203Z,0.90
2023-03-26T15:40:09.807Z,0.70
2023-03-26T15:42:58.149Z,0.82
2023-03-26T15:45:36.889Z,0.93
2023-03-26T15:48:21.812Z,1.00
2023-03-26T15:50:58.804Z,1.15
2023-03-26T15:53:54.877Z,0.98
2023-03-26T15:56:54.243Z,0.77
2023-03-26T15:59:21.901Z,1.20
2023-03-26T16:01:51.524Z,1.00
2023-03-26T16:04:30.264Z,1.48
2023-03-26T16:07:04.140Z,1.02
2023-03-26T16:09:53.752Z,0.88
2023-03-26T16:12:26.300Z,1.15
2023-03-26T16:15:35.244Z,0.70
2023-03-26T16:18:12.037Z,1.02
2023-03-26T16:20:50.920Z,1.52
2023-03-26T16:23:33.524Z,0.80
2023-03-26T16:26:23.106Z,1.00
2023-03-26T16:28:52.912Z,0.90
2023-03-26T16:31:57.867Z,1.10
2023-03-26T16:34:57.291Z,1.30
2023-03-26T16:37:36.329Z,1.08
2023-03-26T16:40:18.543Z,1.08
2023-03-26T16:43:22.608Z,1.40
2023-03-26T16:46:05.803Z,1.08
2023-03-26T16:48:41.299Z,1.05
2023-03-26T16:51:19.843Z,1.25
2023-03-26T16:54:00.221Z,1.15
2023-03-26T16:56:36.105Z,0.98
2023-03-26T16:59:26.704Z,1.08
2023-03-26T17:02:06.954Z,0.73
2023-03-26T17:04:35.589Z,1.10
2023-03-26T17:07:24.102Z,1.45
2023-03-26T17:10:14.879Z,1.00
2023-03-26T17:12:51.409Z,0.95
2023-03-26T17:15:29.037Z,1.48
2023-03-26T17:18:17.159Z,1.02
2023-03-26T17:20:59.689Z,1.00
2023-03-26T17:23:39.875Z,1.30
2023-03-26T17:26:19.712Z,0.90
2023-03-26T17:28:46.496Z,1.08
2023-03-26T17:31:23.662Z,1.02
2023-03-26T17:33:50.747Z,1.10
2023-03-26T17:36:24.168Z,0.98
2023-03-26T17:38:50.718Z,1.00
2023-03-26T17:42:10.494Z,0.80
2023-03-26T17:44:53.292Z,0.90
2023-03-26T17:47:23.668Z,0.85
2023-03-26T17:49:54.912Z,1.13
2023-03-26T17:52:29.825Z,0.95
2023-03-26T17:54:57.112Z,0.80
2023-03-26T17:57:41.905Z,1.08
2023-03-26T18:00:16.790Z,1.27
2023-03-26T18:02:50.564Z,0.93
2023-03-26T18:05:17.676Z,0.85
2023-03-26T18:08:03.916Z,0.90
2023-03-26T18:10:45.899Z,0.80
2023-03-26T18:13:23.259Z,0.88
2023-03-26T18:16:11.157Z,1.15
2023-03-26T18:18:48.594Z,1.50
2023-03-26T18:21:24.333Z,1.45
2023-03-26T18:23:51.307Z,1.23
2023-03-26T18:26:34.405Z,1.27
2023-03-26T18:29:25.654Z,0.77
2023-03-26T18:32:00.834Z,1.00
2023-03-26T18:34:30.835Z,0.90
2023-03-26T18:37:16.579Z,1.17
2023-03-26T18:40:14.568Z,0.93
2023-03-26T18:42:45.649Z,0.80
2023-03-26T18:45:37.732Z,1.00
2023-03-26T18:48:06.358Z,0.80
2023-03-26T18:50:37.328Z,0.75
2023-03-26T18:53:08.528Z,0.70
2023-03-26T18:55:39.571Z,0.70
2023-03-26T18:58:27.620Z,1.00
2023-03-26T19:01:00.584Z,0.60
2023-03-26T19:03:32.104Z,0.70
2023-03-26T19:05:59.354Z,0.50
2023-03-26T19:08:26.103Z,0.43
2023-03-26T19:10:54.567Z,0.50
2023-03-26T19:13:21.922Z,0.45
2023-03-26T19:15:52.091Z,0.80
2023-03-26T19:18:28.721Z,0.82
2023-03-26T19:20:58.817Z,0.68
2023-03-26T19:23:31.726Z,0.60
2023-03-26T19:26:01.733Z,0.70
2023-03-26T19:28:32.817Z,0.60
2023-03-26T19:31:16.032Z,0.80
2023-03-26T19:33:44.369Z,0.50
2023-03-26T19:36:13.910Z,0.77
2023-03-26T19:38:55.075Z,0.80
2023-03-26T19:41:25.753Z,0.60
2023-03-26T19:43:59.155Z,0.60
2023-03-26T19:46:27.787Z,0.80
2023-03-26T19:48:56.772Z,0.75
2023-03-26T19:51:35.774Z,0.80
2023-03-26T19:54:16.782Z,0.70
2023-03-26T19:56:43.631Z,0.50
2023-03-26T19:59:10.243Z,0.77
2023-03-26T20:01:36.929Z,0.55
2023-03-26T20:04:06.598Z,1.10
2023-03-26T20:06:43.931Z,0.88
2023-03-26T20:09:12.887Z,1.17
2023-03-26T20:11:40.775Z,0.73
2023-03-26T20:14:16.162Z,1.02
2023-03-26T20:16:45.281Z,1.00
2023-03-26T20:19:14.196Z,1.27
2023-03-26T20:21:41.760Z,1.17
2023-03-26T20:24:14.688Z,1.30
2023-03-26T20:26:41.585Z,1.10
2023-03-26T20:29:08.193Z,0.88
2023-03-26T20:31:34.751Z,1.13
2023-03-26T20:34:01.439Z,1.20
2023-03-26T20:36:33.111Z,1.20
2023-03-26T20:39:05.612Z,1.30
2023-03-26T20:41:33.780Z,1.50
2023-03-26T20:44:01.016Z,1.60
2023-03-26T20:46:30.582Z,1.13
2023-03-26T20:48:59.579Z,1.90
2023-03-26T20:51:28.725Z,1.80
2023-03-26T20:53:56.375Z,1.60
2023-03-26T20:56:23.469Z,1.80
2023-03-26T20:59:03.501Z,2.00
2023-03-26T21:01:34.970Z,1.73
2023-03-26T21:04:04.309Z,1.65
2023-03-26T21:06:31.089Z,1.80
2023-03-26T21:08:57.892Z,1.95
2023-03-26T21:11:52.165Z,1.63
2023-03-26T21:14:22.438Z,2.30
2023-03-26T21:16:49.437Z,2.20
2023-03-26T21:19:16.274Z,2.10
2023-03-26T21:22:04.827Z,2.30
2023-03-26T21:24:37.790Z,2.40
2023-03-26T21:27:37.326Z,2.65
2023-03-26T21:30:13.787Z,2.33
2023-03-26T21:32:41.479Z,2.47
2023-03-26T21:35:08.865Z,2.45
2023-03-26T21:37:35.698Z,2.80
2023-03-26T21:40:12.661Z,2.72
2023-03-26T21:42:39.410Z,2.70
2023-03-26T21:45:06.837Z,2.70
2023-03-26T21:47:33.754Z,2.75
2023-03-26T21:50:00.539Z,2.75
2023-03-26T21:52:27.990Z,2.80
2023-03-26T21:54:54.910Z,2.80
2023-03-26T21:57:40.093Z,3.10
2023-03-26T22:00:27.884Z,3.10
2023-03-26T22:03:26.599Z,2.70
2023-03-26T22:06:11.386Z,2.70
2023-03-26T22:08:40.081Z,2.70
2023-03-26T22:11:08.127Z,2.88
2023-03-26T22:13:38.629Z,2.80
2023-03-26T22:16:07.328Z,2.85
2023-03-26T22:18:34.775Z,3.20
2023-03-26T22:21:01.665Z,3.03
2023-03-26T22:23:34.312Z,3.15
2023-03-26T22:26:00.958Z,3.03
2023-03-26T22:28:27.717Z,3.17
2023-03-26T22:30:54.505Z,2.92
2023-03-26T22:33:21.530Z,2.45
2023-03-26T22:35:48.135Z,3.03
2023-03-26T22:38:17.093Z,2.28
2023-03-26T22:40:43.748Z,2.38
2023-03-26T22:43:10.306Z,2.13
2023-03-26T22:45:37.752Z,2.20
2023-03-26T22:48:04.832Z,2.35
2023-03-26T22:50:32.440Z,1.85
2023-03-26T22:52:59.020Z,2.28
2023-03-26T22:55:28.776Z,3.00
2023-03-26T22:57:56.866Z,2.80
2023-03-26T23:00:23.568Z,2.05
2023-03-26T23:02:50.189Z,2.38
2023-03-26T23:05:19.803Z,2.38
2023-03-26T23:07:46.668Z,2.65
2023-03-26T23:10:13.681Z,2.50
2023-03-26T23:12:40.429Z,2.35
2023-03-26T23:15:08.084Z,2.25
2023-03-26T23:17:36.139Z,2.20
2023-03-26T23:20:06.182Z,2.90
2023-03-26T23:22:35.275Z,2.67
2023-03-26T23:25:02.063Z,2.53
2023-03-26T23:27:28.634Z,2.63
2023-03-26T23:29:55.883Z,3.00
2023-03-26T23:32:25.251Z,4.00
2023-03-26T23:34:52.528Z,2.78
2023-03-26T23:37:23.329Z,2.90
2023-03-26T23:39:51.108Z,3.08
2023-03-26T23:42:28.830Z,2.92
2023-03-26T23:44:57.244Z,2.65
2023-03-26T23:47:24.202Z,3.97
2023-03-26T23:49:51.035Z,3.10
2023-03-26T23:52:17.603Z,2.30
2023-03-26T23:54:45.159Z,2.30
2023-03-26T23:57:11.924Z,2.70
2023-03-26T23:59:38.699Z,2.10
